sensor_id;sensor_type;location;lat;lon;timestamp;P1;durP1;ratioP1;P2;durP2;ratioP2
4638;SDS011;2332;38.646;-9.154;2023-06-14T00:00:12;3.60;;;2.97;;
4638;SDS011;2332;38.646;-9.154;2023-06-14T00:02:39;5.37;;;2.90;;
4638;SDS011;2332;38.646;-9.154;2023-06-14T00:05:07;6.57;;;2.70;;
4638;SDS011;2332;38.646;-9.154;2023-06-14T00:07:34;6.80;;;2.60;;
4638;SDS011;2332;38.646;-9.154;2023-06-14T00:09:59;9.00;;;3.03;;
4638;SDS011;2332;38.646;-9.154;2023-06-14T00:12:25;12.30;;;2.77;;
4638;SDS011;2332;38.646;-9.154;2023-06-14T00:14:50;8.80;;;2.97;;
4638;SDS011;2332;38.646;-9.154;2023-06-14T00:17:16;4.77;;;2.80;;
4638;SDS011;2332;38.646;-9.154;2023-06-14T00:19:41;9.10;;;3.10;;
4638;SDS011;2332;38.646;-9.154;2023-06-14T00:22:07;7.77;;;3.03;;
4638;SDS011;2332;38.646;-9.154;2023-06-14T00:24:32;10.37;;;3.40;;
4638;SDS011;2332;38.646;-9.154;2023-06-14T00:26:57;6.30;;;2.90;;
4638;SDS011;2332;38.646;-9.154;2023-06-14T00:29:23;6.07;;;3.10;;
4638;SDS011;2332;38.646;-9.154;2023-06-14T00:31:48;8.40;;;3.20;;
4638;SDS011;2332;38.646;-9.154;2023-06-14T00:34:14;8.77;;;3.60;;
4638;SDS011;2332;38.646;-9.154;2023-06-14T00:36:39;6.63;;;2.87;;
4638;SDS011;2332;38.646;-9.154;2023-06-14T00:39:04;7.47;;;3.00;;
4638;SDS011;2332;38.646;-9.154;2023-06-14T00:41:30;5.03;;;2.90;;
4638;SDS011;2332;38.646;-9.154;2023-06-14T00:43:55;12.53;;;3.33;;
4638;SDS011;2332;38.646;-9.154;2023-06-14T00:46:21;9.07;;;2.90;;
4638;SDS011;2332;38.646;-9.154;2023-06-14T00:48:47;8.97;;;3.07;;
4638;SDS011;2332;38.646;-9.154;2023-06-14T00:51:13;7.43;;;3.27;;
4638;SDS011;2332;38.646;-9.154;2023-06-14T00:53:38;6.20;;;2.87;;
4638;SDS011;2332;38.646;-9.154;2023-06-14T00:56:04;7.97;;;3.30;;
4638;SDS011;2332;38.646;-9.154;2023-06-14T00:58:30;5.13;;;2.50;;
4638;SDS011;2332;38.646;-9.154;2023-06-14T01:00:56;5.83;;;2.53;;
4638;SDS011;2332;38.646;-9.154;2023-06-14T01:03:21;7.27;;;3.07;;
4638;SDS011;2332;38.646;-9.154;2023-06-14T01:05:49;4.37;;;2.90;;
4638;SDS011;2332;38.646;-9.154;2023-06-14T01:08:22;8.93;;;2.83;;
4638;SDS011;2332;38.646;-9.154;2023-06-14T01:13:34;4.03;;;2.50;;
4638;SDS011;2332;38.646;-9.154;2023-06-14T01:16:00;8.67;;;3.67;;
4638;SDS011;2332;38.646;-9.154;2023-06-14T01:18:27;10.80;;;3.70;;
4638;SDS011;2332;38.646;-9.154;2023-06-14T01:20:54;7.20;;;2.87;;
4638;SDS011;2332;38.646;-9.154;2023-06-14T01:23:21;9.40;;;3.10;;
4638;SDS011;2332;38.646;-9.154;2023-06-14T01:25:47;3.80;;;2.83;;
4638;SDS011;2332;38.646;-9.154;2023-06-14T01:28:17;5.57;;;3.07;;
4638;SDS011;2332;38.646;-9.154;2023-06-14T01:30:46;9.40;;;2.90;;
4638;SDS011;2332;38.646;-9.154;2023-06-14T01:33:16;4.30;;;2.97;;
4638;SDS011;2332;38.646;-9.154;2023-06-14T01:35:43;7.80;;;3.00;;
4638;SDS011;2332;38.646;-9.154;2023-06-14T01:38:09;7.57;;;3.40;;
4638;SDS011;2332;38.646;-9.154;2023-06-14T01:40:34;6.50;;;2.97;;
4638;SDS011;2332;38.646;-9.154;2023-06-14T01:43:00;6.50;;;3.40;;
4638;SDS011;2332;38.646;-9.154;2023-06-14T01:45:26;4.90;;;3.33;;
4638;SDS011;2332;38.646;-9.154;2023-06-14T01:47:52;6.17;;;3.03;;
4638;SDS011;2332;38.646;-9.154;2023-06-14T01:50:19;11.57;;;3.83;;
4638;SDS011;2332;38.646;-9.154;2023-06-14T01:52:44;5.97;;;3.00;;
4638;SDS011;2332;38.646;-9.154;2023-06-14T01:55:10;7.20;;;3.47;;
4638;SDS011;2332;38.646;-9.154;2023-06-14T01:57:38;6.30;;;3.87;;
4638;SDS011;2332;38.646;-9.154;2023-06-14T02:00:06;9.50;;;4.27;;
4638;SDS011;2332;38.646;-9.154;2023-06-14T02:02:35;14.33;;;4.33;;
4638;SDS011;2332;38.646;-9.154;2023-06-14T02:05:00;6.97;;;4.00;;
4638;SDS011;2332;38.646;-9.154;2023-06-14T02:07:26;12.40;;;3.73;;
4638;SDS011;2332;38.646;-9.154;2023-06-14T02:09:52;14.27;;;4.30;;
4638;SDS011;2332;38.646;-9.154;2023-06-14T02:12:17;6.73;;;3.60;;
4638;SDS011;2332;38.646;-9.154;2023-06-14T02:14:43;10.50;;;4.30;;
4638;SDS011;2332;38.646;-9.154;2023-06-14T02:17:09;11.20;;;4.30;;
4638;SDS011;2332;38.646;-9.154;2023-06-14T02:19:35;8.43;;;3.40;;
4638;SDS011;2332;38.646;-9.154;2023-06-14T02:22:00;9.60;;;3.97;;
4638;SDS011;2332;38.646;-9.154;2023-06-14T02:24:26;8.23;;;3.67;;
4638;SDS011;2332;38.646;-9.154;2023-06-14T02:26:51;7.63;;;3.73;;
4638;SDS011;2332;38.646;-9.154;2023-06-14T02:29:16;10.70;;;4.40;;
4638;SDS011;2332;38.646;-9.154;2023-06-14T02:31:42;9.57;;;3.53;;
4638;SDS011;2332;38.646;-9.154;2023-06-14T02:34:12;10.30;;;4.93;;
4638;SDS011;2332;38.646;-9.154;2023-06-14T02:36:37;17.00;;;3.80;;
4638;SDS011;2332;38.646;-9.154;2023-06-14T02:39:09;12.13;;;3.83;;
4638;SDS011;2332;38.646;-9.154;2023-06-14T02:41:38;11.43;;;4.23;;
4638;SDS011;2332;38.646;-9.154;2023-06-14T02:44:04;10.63;;;4.20;;
4638;SDS011;2332;38.646;-9.154;2023-06-14T02:46:29;8.30;;;3.77;;
4638;SDS011;2332;38.646;-9.154;2023-06-14T02:48:55;10.30;;;3.90;;
4638;SDS011;2332;38.646;-9.154;2023-06-14T02:51:20;11.40;;;3.90;;
4638;SDS011;2332;38.646;-9.154;2023-06-14T02:53:45;8.83;;;3.73;;
4638;SDS011;2332;38.646;-9.154;2023-06-14T02:56:11;10.40;;;3.50;;
4638;SDS011;2332;38.646;-9.154;2023-06-14T02:58:37;16.40;;;4.13;;
4638;SDS011;2332;38.646;-9.154;2023-06-14T03:01:02;9.77;;;3.17;;
4638;SDS011;2332;38.646;-9.154;2023-06-14T03:03:28;14.27;;;3.40;;
4638;SDS011;2332;38.646;-9.154;2023-06-14T03:05:53;4.20;;;2.90;;
4638;SDS011;2332;38.646;-9.154;2023-06-14T03:08:19;9.30;;;2.90;;
4638;SDS011;2332;38.646;-9.154;2023-06-14T03:10:45;8.03;;;2.93;;
4638;SDS011;2332;38.646;-9.154;2023-06-14T03:13:11;3.27;;;2.50;;
4638;SDS011;2332;38.646;-9.154;2023-06-14T03:15:37;7.63;;;2.57;;
4638;SDS011;2332;38.646;-9.154;2023-06-14T03:18:03;4.80;;;2.50;;
4638;SDS011;2332;38.646;-9.154;2023-06-14T03:20:29;11.00;;;2.73;;
4638;SDS011;2332;38.646;-9.154;2023-06-14T03:22:55;6.83;;;2.83;;
4638;SDS011;2332;38.646;-9.154;2023-06-14T03:25:20;9.70;;;3.40;;
4638;SDS011;2332;38.646;-9.154;2023-06-14T03:27:47;7.57;;;2.77;;
4638;SDS011;2332;38.646;-9.154;2023-06-14T03:30:12;4.83;;;2.80;;
4638;SDS011;2332;38.646;-9.154;2023-06-14T03:32:38;5.70;;;2.80;;
4638;SDS011;2332;38.646;-9.154;2023-06-14T03:35:03;6.50;;;2.20;;
4638;SDS011;2332;38.646;-9.154;2023-06-14T03:37:29;4.97;;;2.60;;
4638;SDS011;2332;38.646;-9.154;2023-06-14T03:39:54;5.57;;;2.70;;
4638;SDS011;2332;38.646;-9.154;2023-06-14T03:42:19;2.57;;;2.30;;
4638;SDS011;2332;38.646;-9.154;2023-06-14T03:44:45;4.30;;;2.90;;
4638;SDS011;2332;38.646;-9.154;2023-06-14T03:47:10;10.97;;;3.00;;
4638;SDS011;2332;38.646;-9.154;2023-06-14T03:49:35;11.57;;;2.87;;
4638;SDS011;2332;38.646;-9.154;2023-06-14T03:52:02;3.90;;;2.20;;
4638;SDS011;2332;38.646;-9.154;2023-06-14T03:54:27;4.30;;;2.20;;
4638;SDS011;2332;38.646;-9.154;2023-06-14T03:56:53;7.30;;;2.37;;
4638;SDS011;2332;38.646;-9.154;2023-06-14T03:59:19;6.53;;;2.30;;
4638;SDS011;2332;38.646;-9.154;2023-06-14T04:01:45;5.80;;;2.37;;
4638;SDS011;2332;38.646;-9.154;2023-06-14T04:04:12;4.33;;;2.67;;
4638;SDS011;2332;38.646;-9.154;2023-06-14T04:06:37;5.13;;;2.60;;
4638;SDS011;2332;38.646;-9.154;2023-06-14T04:09:02;9.03;;;2.67;;
4638;SDS011;2332;38.646;-9.154;2023-06-14T04:11:28;4.30;;;2.40;;
4638;SDS011;2332;38.646;-9.154;2023-06-14T04:13:54;5.17;;;2.30;;
4638;SDS011;2332;38.646;-9.154;2023-06-14T04:16:21;5.40;;;2.90;;
4638;SDS011;2332;38.646;-9.154;2023-06-14T04:18:47;8.13;;;2.80;;
4638;SDS011;2332;38.646;-9.154;2023-06-14T04:21:13;10.30;;;2.90;;
4638;SDS011;2332;38.646;-9.154;2023-06-14T04:23:38;5.50;;;2.60;;
4638;SDS011;2332;38.646;-9.154;2023-06-14T04:26:04;5.60;;;2.53;;
4638;SDS011;2332;38.646;-9.154;2023-06-14T04:28:29;3.60;;;2.03;;
4638;SDS011;2332;38.646;-9.154;2023-06-14T04:30:55;5.43;;;2.23;;
4638;SDS011;2332;38.646;-9.154;2023-06-14T04:33:20;3.00;;;2.70;;
4638;SDS011;2332;38.646;-9.154;2023-06-14T04:35:46;4.90;;;2.37;;
4638;SDS011;2332;38.646;-9.154;2023-06-14T04:38:13;6.23;;;2.73;;
4638;SDS011;2332;38.646;-9.154;2023-06-14T04:40:41;2.60;;;2.30;;
4638;SDS011;2332;38.646;-9.154;2023-06-14T04:43:11;6.63;;;2.60;;
4638;SDS011;2332;38.646;-9.154;2023-06-14T04:45:40;4.93;;;2.53;;
4638;SDS011;2332;38.646;-9.154;2023-06-14T04:48:06;4.43;;;2.57;;
4638;SDS011;2332;38.646;-9.154;2023-06-14T04:50:31;5.23;;;2.53;;
4638;SDS011;2332;38.646;-9.154;2023-06-14T04:52:58;6.60;;;3.20;;
4638;SDS011;2332;38.646;-9.154;2023-06-14T04:55:24;8.13;;;2.90;;
4638;SDS011;2332;38.646;-9.154;2023-06-14T04:57:51;5.13;;;2.37;;
4638;SDS011;2332;38.646;-9.154;2023-06-14T05:00:18;3.00;;;2.47;;
4638;SDS011;2332;38.646;-9.154;2023-06-14T05:02:43;5.80;;;3.13;;
4638;SDS011;2332;38.646;-9.154;2023-06-14T05:05:09;17.67;;;3.30;;
4638;SDS011;2332;38.646;-9.154;2023-06-14T05:07:35;8.53;;;2.60;;
4638;SDS011;2332;38.646;-9.154;2023-06-14T05:10:00;7.23;;;2.60;;
4638;SDS011;2332;38.646;-9.154;2023-06-14T05:12:26;9.30;;;3.60;;
4638;SDS011;2332;38.646;-9.154;2023-06-14T05:14:51;2.60;;;2.20;;
4638;SDS011;2332;38.646;-9.154;2023-06-14T05:17:17;5.17;;;2.70;;
4638;SDS011;2332;38.646;-9.154;2023-06-14T05:19:42;3.37;;;2.57;;
4638;SDS011;2332;38.646;-9.154;2023-06-14T05:22:08;5.77;;;2.80;;
4638;SDS011;2332;38.646;-9.154;2023-06-14T05:24:33;3.37;;;2.33;;
4638;SDS011;2332;38.646;-9.154;2023-06-14T05:26:59;6.53;;;2.80;;
4638;SDS011;2332;38.646;-9.154;2023-06-14T05:29:24;4.73;;;3.10;;
4638;SDS011;2332;38.646;-9.154;2023-06-14T05:31:50;7.53;;;2.90;;
4638;SDS011;2332;38.646;-9.154;2023-06-14T05:34:15;6.57;;;3.13;;
4638;SDS011;2332;38.646;-9.154;2023-06-14T05:36:40;4.50;;;2.43;;
4638;SDS011;2332;38.646;-9.154;2023-06-14T05:39:06;5.30;;;2.40;;
4638;SDS011;2332;38.646;-9.154;2023-06-14T05:41:31;5.43;;;2.90;;
4638;SDS011;2332;38.646;-9.154;2023-06-14T05:43:57;2.50;;;2.30;;
4638;SDS011;2332;38.646;-9.154;2023-06-14T05:46:22;2.57;;;2.37;;
4638;SDS011;2332;38.646;-9.154;2023-06-14T05:48:51;3.03;;;1.93;;
4638;SDS011;2332;38.646;-9.154;2023-06-14T05:51:16;2.30;;;2.10;;
4638;SDS011;2332;38.646;-9.154;2023-06-14T05:53:44;2.93;;;2.00;;
4638;SDS011;2332;38.646;-9.154;2023-06-14T05:56:10;5.27;;;2.37;;
4638;SDS011;2332;38.646;-9.154;2023-06-14T05:58:35;5.03;;;2.30;;
4638;SDS011;2332;38.646;-9.154;2023-06-14T06:01:01;2.93;;;1.90;;
4638;SDS011;2332;38.646;-9.154;2023-06-14T06:03:27;9.30;;;2.60;;
4638;SDS011;2332;38.646;-9.154;2023-06-14T06:05:54;6.67;;;2.23;;
4638;SDS011;2332;38.646;-9.154;2023-06-14T06:08:19;4.10;;;2.03;;
4638;SDS011;2332;38.646;-9.154;2023-06-14T06:10:45;6.80;;;1.90;;
4638;SDS011;2332;38.646;-9.154;2023-06-14T06:13:11;4.43;;;1.90;;
4638;SDS011;2332;38.646;-9.154;2023-06-14T06:15:36;1.87;;;1.77;;
4638;SDS011;2332;38.646;-9.154;2023-06-14T06:18:04;6.00;;;1.80;;
4638;SDS011;2332;38.646;-9.154;2023-06-14T06:20:30;8.20;;;2.07;;
4638;SDS011;2332;38.646;-9.154;2023-06-14T06:22:59;2.20;;;2.00;;
4638;SDS011;2332;38.646;-9.154;2023-06-14T06:25:26;4.10;;;1.93;;
4638;SDS011;2332;38.646;-9.154;2023-06-14T06:27:55;3.33;;;1.97;;
4638;SDS011;2332;38.646;-9.154;2023-06-14T06:30:21;4.40;;;1.87;;
4638;SDS011;2332;38.646;-9.154;2023-06-14T06:32:47;3.07;;;1.80;;
4638;SDS011;2332;38.646;-9.154;2023-06-14T06:35:12;5.33;;;2.20;;
4638;SDS011;2332;38.646;-9.154;2023-06-14T06:37:38;9.03;;;2.93;;
4638;SDS011;2332;38.646;-9.154;2023-06-14T06:40:03;4.83;;;2.17;;
4638;SDS011;2332;38.646;-9.154;2023-06-14T06:42:31;4.13;;;2.00;;
4638;SDS011;2332;38.646;-9.154;2023-06-14T06:44:56;3.90;;;2.27;;
4638;SDS011;2332;38.646;-9.154;2023-06-14T06:47:21;5.43;;;2.47;;
4638;SDS011;2332;38.646;-9.154;2023-06-14T06:49:47;4.70;;;1.93;;
4638;SDS011;2332;38.646;-9.154;2023-06-14T06:52:13;4.50;;;1.63;;
4638;SDS011;2332;38.646;-9.154;2023-06-14T06:54:38;2.20;;;2.00;;
4638;SDS011;2332;38.646;-9.154;2023-06-14T06:57:04;5.60;;;2.23;;
4638;SDS011;2332;38.646;-9.154;2023-06-14T06:59:30;5.53;;;2.20;;
4638;SDS011;2332;38.646;-9.154;2023-06-14T07:01:56;2.30;;;1.53;;
4638;SDS011;2332;38.646;-9.154;2023-06-14T07:04:21;3.13;;;1.70;;
4638;SDS011;2332;38.646;-9.154;2023-06-14T07:06:47;2.63;;;1.77;;
4638;SDS011;2332;38.646;-9.154;2023-06-14T07:09:12;2.93;;;1.70;;
4638;SDS011;2332;38.646;-9.154;2023-06-14T07:11:39;2.70;;;1.57;;
4638;SDS011;2332;38.646;-9.154;2023-06-14T07:14:05;2.70;;;1.50;;
4638;SDS011;2332;38.646;-9.154;2023-06-14T07:16:30;5.40;;;2.43;;
4638;SDS011;2332;38.646;-9.154;2023-06-14T07:18:56;4.53;;;2.20;;
4638;SDS011;2332;38.646;-9.154;2023-06-14T07:21:21;4.57;;;1.90;;
4638;SDS011;2332;38.646;-9.154;2023-06-14T07:23:47;6.57;;;1.70;;
4638;SDS011;2332;38.646;-9.154;2023-06-14T07:26:12;9.93;;;2.70;;
4638;SDS011;2332;38.646;-9.154;2023-06-14T07:28:37;2.20;;;2.00;;
4638;SDS011;2332;38.646;-9.154;2023-06-14T07:31:03;4.53;;;2.20;;
4638;SDS011;2332;38.646;-9.154;2023-06-14T07:33:28;9.50;;;3.20;;
4638;SDS011;2332;38.646;-9.154;2023-06-14T07:35:53;3.33;;;1.70;;
4638;SDS011;2332;38.646;-9.154;2023-06-14T07:38:19;3.70;;;1.53;;
4638;SDS011;2332;38.646;-9.154;2023-06-14T07:40:44;5.03;;;1.70;;
4638;SDS011;2332;38.646;-9.154;2023-06-14T07:43:10;10.13;;;2.20;;
4638;SDS011;2332;38.646;-9.154;2023-06-14T07:45:36;2.63;;;2.07;;
4638;SDS011;2332;38.646;-9.154;2023-06-14T07:48:01;3.03;;;1.63;;
4638;SDS011;2332;38.646;-9.154;2023-06-14T07:50:26;3.93;;;1.83;;
4638;SDS011;2332;38.646;-9.154;2023-06-14T07:52:52;4.87;;;2.17;;
4638;SDS011;2332;38.646;-9.154;2023-06-14T07:55:17;4.60;;;2.17;;
4638;SDS011;2332;38.646;-9.154;2023-06-14T07:57:43;2.60;;;2.00;;
4638;SDS011;2332;38.646;-9.154;2023-06-14T08:00:09;2.30;;;1.90;;
4638;SDS011;2332;38.646;-9.154;2023-06-14T08:02:40;7.03;;;2.13;;
4638;SDS011;2332;38.646;-9.154;2023-06-14T08:05:05;2.20;;;1.83;;
4638;SDS011;2332;38.646;-9.154;2023-06-14T08:07:31;3.90;;;1.60;;
4638;SDS011;2332;38.646;-9.154;2023-06-14T08:09:56;5.00;;;1.70;;
4638;SDS011;2332;38.646;-9.154;2023-06-14T08:12:21;3.03;;;1.67;;
4638;SDS011;2332;38.646;-9.154;2023-06-14T08:14:47;5.17;;;1.97;;
4638;SDS011;2332;38.646;-9.154;2023-06-14T08:17:12;6.17;;;2.17;;
4638;SDS011;2332;38.646;-9.154;2023-06-14T08:19:38;2.23;;;2.03;;
4638;SDS011;2332;38.646;-9.154;2023-06-14T08:22:03;3.17;;;1.87;;
4638;SDS011;2332;38.646;-9.154;2023-06-14T08:24:29;7.40;;;1.80;;
4638;SDS011;2332;38.646;-9.154;2023-06-14T08:26:54;3.27;;;1.87;;
4638;SDS011;2332;38.646;-9.154;2023-06-14T08:29:21;14.50;;;2.67;;
4638;SDS011;2332;38.646;-9.154;2023-06-14T08:31:46;4.23;;;1.67;;
4638;SDS011;2332;38.646;-9.154;2023-06-14T08:34:12;6.07;;;2.37;;
4638;SDS011;2332;38.646;-9.154;2023-06-14T08:36:37;2.20;;;1.93;;
4638;SDS011;2332;38.646;-9.154;2023-06-14T08:39:03;1.53;;;1.40;;
4638;SDS011;2332;38.646;-9.154;2023-06-14T08:41:28;2.90;;;1.77;;
4638;SDS011;2332;38.646;-9.154;2023-06-14T08:43:54;3.57;;;1.90;;
4638;SDS011;2332;38.646;-9.154;2023-06-14T08:46:20;6.33;;;2.40;;
4638;SDS011;2332;38.646;-9.154;2023-06-14T08:48:50;7.73;;;1.97;;
4638;SDS011;2332;38.646;-9.154;2023-06-14T08:51:19;5.47;;;2.00;;
4638;SDS011;2332;38.646;-9.154;2023-06-14T08:53:45;4.10;;;2.20;;
4638;SDS011;2332;38.646;-9.154;2023-06-14T08:56:11;1.70;;;1.60;;
4638;SDS011;2332;38.646;-9.154;2023-06-14T08:58:43;3.70;;;1.90;;
4638;SDS011;2332;38.646;-9.154;2023-06-14T09:01:10;3.60;;;1.97;;
4638;SDS011;2332;38.646;-9.154;2023-06-14T09:03:39;6.20;;;1.93;;
4638;SDS011;2332;38.646;-9.154;2023-06-14T09:06:06;3.60;;;2.00;;
4638;SDS011;2332;38.646;-9.154;2023-06-14T09:08:34;4.90;;;2.33;;
4638;SDS011;2332;38.646;-9.154;2023-06-14T09:11:00;3.97;;;1.80;;
4638;SDS011;2332;38.646;-9.154;2023-06-14T09:13:26;6.80;;;2.13;;
4638;SDS011;2332;38.646;-9.154;2023-06-14T09:15:52;4.13;;;1.77;;
4638;SDS011;2332;38.646;-9.154;2023-06-14T09:18:17;2.87;;;1.87;;
4638;SDS011;2332;38.646;-9.154;2023-06-14T09:20:42;5.60;;;2.23;;
4638;SDS011;2332;38.646;-9.154;2023-06-14T09:23:08;5.83;;;2.27;;
4638;SDS011;2332;38.646;-9.154;2023-06-14T09:25:43;4.63;;;1.93;;
4638;SDS011;2332;38.646;-9.154;2023-06-14T09:28:11;3.20;;;1.60;;
4638;SDS011;2332;38.646;-9.154;2023-06-14T09:30:37;3.20;;;1.87;;
4638;SDS011;2332;38.646;-9.154;2023-06-14T09:33:02;3.27;;;2.03;;
4638;SDS011;2332;38.646;-9.154;2023-06-14T09:35:27;4.07;;;1.70;;
4638;SDS011;2332;38.646;-9.154;2023-06-14T09:37:56;3.20;;;1.90;;
4638;SDS011;2332;38.646;-9.154;2023-06-14T09:40:21;7.67;;;1.90;;
4638;SDS011;2332;38.646;-9.154;2023-06-14T09:42:49;3.60;;;1.90;;
4638;SDS011;2332;38.646;-9.154;2023-06-14T09:45:16;2.67;;;2.20;;
4638;SDS011;2332;38.646;-9.154;2023-06-14T09:47:48;3.23;;;1.97;;
4638;SDS011;2332;38.646;-9.154;2023-06-14T09:50:13;3.40;;;1.70;;
4638;SDS011;2332;38.646;-9.154;2023-06-14T09:52:39;3.70;;;1.97;;
4638;SDS011;2332;38.646;-9.154;2023-06-14T09:55:06;3.90;;;1.90;;
4638;SDS011;2332;38.646;-9.154;2023-06-14T09:57:34;8.10;;;1.97;;
4638;SDS011;2332;38.646;-9.154;2023-06-14T10:00:00;3.23;;;1.87;;
4638;SDS011;2332;38.646;-9.154;2023-06-14T10:02:29;4.47;;;1.67;;
4638;SDS011;2332;38.646;-9.154;2023-06-14T10:05:09;1.67;;;1.57;;
4638;SDS011;2332;38.646;-9.154;2023-06-14T10:07:44;1.83;;;1.60;;
4638;SDS011;2332;38.646;-9.154;2023-06-14T10:10:13;2.77;;;1.90;;
4638;SDS011;2332;38.646;-9.154;2023-06-14T10:12:38;2.40;;;1.30;;
4638;SDS011;2332;38.646;-9.154;2023-06-14T10:15:05;4.27;;;1.90;;
4638;SDS011;2332;38.646;-9.154;2023-06-14T10:17:33;8.63;;;3.13;;
4638;SDS011;2332;38.646;-9.154;2023-06-14T10:23:07;3.30;;;1.67;;
4638;SDS011;2332;38.646;-9.154;2023-06-14T10:25:34;1.70;;;1.60;;
4638;SDS011;2332;38.646;-9.154;2023-06-14T10:28:03;2.63;;;1.97;;
4638;SDS011;2332;38.646;-9.154;2023-06-14T10:30:29;4.50;;;2.03;;
4638;SDS011;2332;38.646;-9.154;2023-06-14T10:33:07;3.43;;;1.70;;
4638;SDS011;2332;38.646;-9.154;2023-06-14T10:35:33;9.60;;;2.30;;
4638;SDS011;2332;38.646;-9.154;2023-06-14T10:38:08;7.60;;;2.33;;
4638;SDS011;2332;38.646;-9.154;2023-06-14T10:40:33;4.20;;;1.70;;
4638;SDS011;2332;38.646;-9.154;2023-06-14T10:42:59;3.87;;;2.17;;
4638;SDS011;2332;38.646;-9.154;2023-06-14T10:45:25;2.60;;;1.83;;
4638;SDS011;2332;38.646;-9.154;2023-06-14T10:47:50;2.73;;;1.97;;
4638;SDS011;2332;38.646;-9.154;2023-06-14T10:50:22;3.50;;;2.03;;
4638;SDS011;2332;38.646;-9.154;2023-06-14T10:52:53;3.63;;;2.00;;
4638;SDS011;2332;38.646;-9.154;2023-06-14T10:55:18;4.00;;;2.20;;
4638;SDS011;2332;38.646;-9.154;2023-06-14T10:57:48;2.33;;;2.10;;
4638;SDS011;2332;38.646;-9.154;2023-06-14T11:00:16;3.53;;;1.77;;
4638;SDS011;2332;38.646;-9.154;2023-06-14T11:02:47;3.73;;;1.77;;
4638;SDS011;2332;38.646;-9.154;2023-06-14T11:05:16;1.67;;;1.57;;
4638;SDS011;2332;38.646;-9.154;2023-06-14T11:10:38;1.80;;;1.70;;
4638;SDS011;2332;38.646;-9.154;2023-06-14T11:13:03;4.90;;;1.70;;
4638;SDS011;2332;38.646;-9.154;2023-06-14T11:15:29;2.03;;;1.70;;
4638;SDS011;2332;38.646;-9.154;2023-06-14T11:17:55;5.10;;;2.90;;
4638;SDS011;2332;38.646;-9.154;2023-06-14T11:20:24;2.40;;;1.83;;
4638;SDS011;2332;38.646;-9.154;2023-06-14T11:22:51;4.20;;;1.70;;
4638;SDS011;2332;38.646;-9.154;2023-06-14T11:25:16;3.23;;;1.90;;
4638;SDS011;2332;38.646;-9.154;2023-06-14T11:27:42;6.00;;;1.40;;
4638;SDS011;2332;38.646;-9.154;2023-06-14T11:30:08;3.27;;;1.93;;
4638;SDS011;2332;38.646;-9.154;2023-06-14T11:32:37;1.60;;;1.50;;
4638;SDS011;2332;38.646;-9.154;2023-06-14T11:35:03;2.90;;;1.70;;
4638;SDS011;2332;38.646;-9.154;2023-06-14T11:37:29;2.23;;;1.57;;
4638;SDS011;2332;38.646;-9.154;2023-06-14T11:39:59;2.23;;;1.87;;
4638;SDS011;2332;38.646;-9.154;2023-06-14T11:42:26;2.23;;;1.60;;
4638;SDS011;2332;38.646;-9.154;2023-06-14T11:44:52;6.33;;;1.83;;
4638;SDS011;2332;38.646;-9.154;2023-06-14T11:47:18;4.10;;;1.93;;
4638;SDS011;2332;38.646;-9.154;2023-06-14T11:49:43;3.70;;;1.63;;
4638;SDS011;2332;38.646;-9.154;2023-06-14T11:52:09;1.83;;;1.73;;
4638;SDS011;2332;38.646;-9.154;2023-06-14T11:54:34;3.20;;;1.90;;
4638;SDS011;2332;38.646;-9.154;2023-06-14T11:56:59;2.30;;;2.03;;
4638;SDS011;2332;38.646;-9.154;2023-06-14T11:59:25;1.90;;;1.80;;
4638;SDS011;2332;38.646;-9.154;2023-06-14T12:01:52;1.73;;;1.60;;
4638;SDS011;2332;38.646;-9.154;2023-06-14T12:04:28;3.00;;;1.97;;
4638;SDS011;2332;38.646;-9.154;2023-06-14T12:06:54;2.10;;;1.90;;
4638;SDS011;2332;38.646;-9.154;2023-06-14T12:09:20;3.10;;;1.90;;
4638;SDS011;2332;38.646;-9.154;2023-06-14T12:11:48;2.50;;;1.80;;
4638;SDS011;2332;38.646;-9.154;2023-06-14T12:14:14;2.70;;;1.70;;
4638;SDS011;2332;38.646;-9.154;2023-06-14T12:16:39;2.67;;;1.90;;
4638;SDS011;2332;38.646;-9.154;2023-06-14T12:21:36;2.77;;;2.27;;
4638;SDS011;2332;38.646;-9.154;2023-06-14T12:24:03;1.70;;;1.60;;
4638;SDS011;2332;38.646;-9.154;2023-06-14T12:26:29;2.07;;;1.97;;
4638;SDS011;2332;38.646;-9.154;2023-06-14T12:28:54;3.43;;;2.27;;
4638;SDS011;2332;38.646;-9.154;2023-06-14T12:31:20;3.07;;;1.80;;
4638;SDS011;2332;38.646;-9.154;2023-06-14T12:33:46;4.00;;;1.80;;
4638;SDS011;2332;38.646;-9.154;2023-06-14T12:36:13;3.23;;;1.93;;
4638;SDS011;2332;38.646;-9.154;2023-06-14T12:38:42;3.67;;;1.97;;
4638;SDS011;2332;38.646;-9.154;2023-06-14T12:41:08;2.77;;;2.00;;
4638;SDS011;2332;38.646;-9.154;2023-06-14T12:43:33;1.70;;;1.60;;
4638;SDS011;2332;38.646;-9.154;2023-06-14T12:45:59;4.67;;;2.00;;
4638;SDS011;2332;38.646;-9.154;2023-06-14T12:48:24;4.10;;;1.90;;
4638;SDS011;2332;38.646;-9.154;2023-06-14T12:50:52;2.20;;;2.10;;
4638;SDS011;2332;38.646;-9.154;2023-06-14T12:53:17;1.70;;;1.60;;
4638;SDS011;2332;38.646;-9.154;2023-06-14T12:55:43;2.67;;;1.60;;
4638;SDS011;2332;38.646;-9.154;2023-06-14T12:58:08;3.83;;;2.00;;
4638;SDS011;2332;38.646;-9.154;2023-06-14T13:00:34;2.80;;;2.53;;
4638;SDS011;2332;38.646;-9.154;2023-06-14T13:03:00;6.30;;;2.40;;
4638;SDS011;2332;38.646;-9.154;2023-06-14T13:05:25;1.60;;;1.50;;
4638;SDS011;2332;38.646;-9.154;2023-06-14T13:07:50;1.87;;;1.77;;
4638;SDS011;2332;38.646;-9.154;2023-06-14T13:10:16;2.20;;;2.00;;
4638;SDS011;2332;38.646;-9.154;2023-06-14T13:12:42;2.10;;;1.80;;
4638;SDS011;2332;38.646;-9.154;2023-06-14T13:15:07;3.33;;;2.30;;
4638;SDS011;2332;38.646;-9.154;2023-06-14T13:17:33;2.60;;;2.20;;
4638;SDS011;2332;38.646;-9.154;2023-06-14T13:20:04;1.77;;;1.67;;
4638;SDS011;2332;38.646;-9.154;2023-06-14T13:22:29;2.43;;;2.00;;
4638;SDS011;2332;38.646;-9.154;2023-06-14T13:24:54;4.17;;;2.07;;
4638;SDS011;2332;38.646;-9.154;2023-06-14T13:27:20;2.20;;;1.73;;
4638;SDS011;2332;38.646;-9.154;2023-06-14T13:29:45;4.43;;;2.17;;
4638;SDS011;2332;38.646;-9.154;2023-06-14T13:32:11;2.50;;;1.60;;
4638;SDS011;2332;38.646;-9.154;2023-06-14T13:34:36;2.03;;;1.83;;
4638;SDS011;2332;38.646;-9.154;2023-06-14T13:37:01;1.80;;;1.70;;
4638;SDS011;2332;38.646;-9.154;2023-06-14T13:39:27;1.90;;;1.80;;
4638;SDS011;2332;38.646;-9.154;2023-06-14T13:41:52;3.40;;;1.73;;
4638;SDS011;2332;38.646;-9.154;2023-06-14T13:44:18;1.93;;;1.67;;
4638;SDS011;2332;38.646;-9.154;2023-06-14T13:46:46;2.30;;;2.00;;
4638;SDS011;2332;38.646;-9.154;2023-06-14T13:49:12;3.17;;;2.00;;
4638;SDS011;2332;38.646;-9.154;2023-06-14T13:51:37;4.00;;;2.07;;
4638;SDS011;2332;38.646;-9.154;2023-06-14T13:54:03;6.67;;;2.07;;
4638;SDS011;2332;38.646;-9.154;2023-06-14T13:56:29;2.10;;;2.00;;
4638;SDS011;2332;38.646;-9.154;2023-06-14T13:58:55;3.37;;;2.20;;
4638;SDS011;2332;38.646;-9.154;2023-06-14T14:01:20;2.63;;;1.83;;
4638;SDS011;2332;38.646;-9.154;2023-06-14T14:03:46;1.83;;;1.70;;
4638;SDS011;2332;38.646;-9.154;2023-06-14T14:06:12;3.47;;;2.13;;
4638;SDS011;2332;38.646;-9.154;2023-06-14T14:08:38;5.23;;;1.70;;
4638;SDS011;2332;38.646;-9.154;2023-06-14T14:11:04;2.20;;;2.00;;
4638;SDS011;2332;38.646;-9.154;2023-06-14T14:13:30;2.53;;;1.60;;
4638;SDS011;2332;38.646;-9.154;2023-06-14T14:15:55;3.07;;;2.17;;
4638;SDS011;2332;38.646;-9.154;2023-06-14T14:18:21;3.80;;;2.37;;
4638;SDS011;2332;38.646;-9.154;2023-06-14T14:20:46;1.70;;;1.57;;
4638;SDS011;2332;38.646;-9.154;2023-06-14T14:23:12;1.87;;;1.77;;
4638;SDS011;2332;38.646;-9.154;2023-06-14T14:25:37;2.40;;;1.83;;
4638;SDS011;2332;38.646;-9.154;2023-06-14T14:28:03;2.40;;;2.20;;
4638;SDS011;2332;38.646;-9.154;2023-06-14T14:30:28;2.27;;;2.07;;
4638;SDS011;2332;38.646;-9.154;2023-06-14T14:32:54;2.90;;;1.97;;
4638;SDS011;2332;38.646;-9.154;2023-06-14T14:35:19;2.87;;;1.83;;
4638;SDS011;2332;38.646;-9.154;2023-06-14T14:37:45;2.10;;;1.90;;
4638;SDS011;2332;38.646;-9.154;2023-06-14T14:40:11;2.47;;;1.80;;
4638;SDS011;2332;38.646;-9.154;2023-06-14T14:42:36;3.63;;;2.13;;
4638;SDS011;2332;38.646;-9.154;2023-06-14T14:45:02;3.83;;;1.90;;
4638;SDS011;2332;38.646;-9.154;2023-06-14T14:47:28;3.77;;;1.80;;
4638;SDS011;2332;38.646;-9.154;2023-06-14T14:49:53;1.70;;;1.60;;
4638;SDS011;2332;38.646;-9.154;2023-06-14T14:52:19;2.03;;;1.87;;
4638;SDS011;2332;38.646;-9.154;2023-06-14T14:54:44;5.90;;;2.20;;
4638;SDS011;2332;38.646;-9.154;2023-06-14T14:57:09;3.80;;;1.93;;
4638;SDS011;2332;38.646;-9.154;2023-06-14T14:59:35;1.70;;;1.60;;
4638;SDS011;2332;38.646;-9.154;2023-06-14T15:02:01;2.03;;;1.83;;
4638;SDS011;2332;38.646;-9.154;2023-06-14T15:04:26;9.43;;;1.97;;